Fort Campbell, KY

9:04 AM CDT on August 29, 2015 (GMT -0500)
Herndon | | Change Station
CLOSE
Current Station
Personal Weather Station
Location: Herndon, KY
Elevation: 594 ft
Nearby Weather Stations

Elev 594 ft 36.67 °N, 87.56 °W | Updated 1 minute ago

Scattered Clouds
Scattered Clouds
76.0 °F
Feels Like 77 °F
N
1.0
Wind Variable Wind from West
Gusts 1.0 mph

Today
High -- | Low -- °F
--% Chance of Precip.
Yesterday
High -- | Low -- °F
Precip. -- in
6:18 AM 7:22 PM
Full, 100% visible
Pressure 30.10 in
Visibility 10.0 miles
Clouds Scattered Clouds 8000 ft
Heat Index 77 °F
Dew Point 71 °F
Humidity 85%
Rainfall 0.00 in
Snow Depth Not available.
UV 3 out of 12
Pollen 10.00 out of 12
Air Quality Not available.
Flu Activity Not available.
METAR KHOP 291358Z AUTO 19003KT 10SM SCT080 24/20 A3011 RMK AO2 SLP193 T02410201
Pressure 30.10 in
Visibility 10.0 miles
Clouds Scattered Clouds 8000 ft
Heat Index 77 °F
Dew Point 71 °F
Humidity 85%
Rainfall 0.00 in
Snow Depth Not available.
UV 3 out of 12
Pollen 10.00 out of 12
Air Quality Not available.
Flu Activity Not available.
METAR KHOP 291358Z AUTO 19003KT 10SM SCT080 24/20 A3011 RMK AO2 SLP193 T02410201

10-Day Weather Forecast

×

Almanac

Astronomy

Aug. 29, 2015 Rise Set
Actual Time
Civil Twilight
Nautical Twilight
Astronomical Twilight
Moon
Length of Visible Light
Length of Day
Tomorrow will be .
, % of the Moon is Illuminated

Today's Extremes

State Highs State Lows

Community

WunderPhotos

Upload Photos

1,850,692 photos uploaded!

WunderBlogs® & News

Nearby

Air Quality

  Air Quality AQ Index Pollutant
Not available.

Snow Depth

Station Depth Elevation

Earthquake Activity

City Distance Mag. Time & Date
Minimum magnitude displayed is 2.5.

Coastal Water Temperatures

Place Temperature

Stations

Nearby Weather Stations

Station Location Temp. Windchill Dew Point Humidity Wind Precip. Elev Updated Type